International Skating Union - Official Site

ISU World Cup Speed Skating Salt lake City
December 8-11, 2017

Draw | Index | Results | World Cup

Laptimes on startingorder 5000m. Men Division B
Laptimes as of Dec 10 2017 7:08PM

Pair 1
Innerlane Outerlane
168 J. Stelly USA
Distance: Time: Lap:
200m 20.32 20.3
600m 50.91 30.5
1000m 1:20.98 30.0
1400m 1:50.91 29.9
1800m 2:20.67 29.7
2200m 2:50.60 29.9
2600m 3:20.87 30.2
3000m 3:51.54 30.6
3400m 4:22.69 31.1
3800m 4:54.41 31.7
4200m 5:26.43 32.0
4600m 5:58.66 32.2
5000m 6:30.94 32.2
124 J. Whyte NZL
Distance: Time: Lap:
200m 20.50 20.5
600m 51.61 31.1
1000m 1:21.94 30.3
1400m 1:52.50 30.5
1800m 2:23.51 31.0
2200m 2:54.57 31.0
2600m 3:25.78 31.2
3000m 3:57.41 31.6
3400m 4:29.49 32.0
3800m 5:02.18 32.6
4200m 5:35.48 33.3
4600m 6:09.43 33.9
5000m 6:43.25 33.8
Pair 2
Innerlane Outerlane
58 K. Nagy HUN
Distance: Time: Lap:
200m 19.42 19.4
600m 50.57 31.1
1000m 1:21.93 31.3
1400m 1:53.14 31.2
1800m 2:24.10 30.9
2200m 2:55.50 31.4
2600m 3:27.75 32.2
3000m 4:00.52 32.7
3400m 4:34.46 33.9
3800m 5:08.63 34.1
4200m 5:43.42 34.7
4600m 6:18.42 35.0
5000m 6:53.43 35.0
165 E. Park USA
Distance: Time: Lap:
200m 19.62 19.6
600m 49.41 29.7
1000m 1:19.26 29.8
1400m 1:48.97 29.7
1800m 2:18.68 29.7
2200m 2:48.73 30.0
2600m 3:19.44 30.7
3000m 3:51.34 31.9
3400m 4:24.26 32.9
3800m 4:57.98 33.7
4200m 5:32.17 34.1
4600m 6:06.77 34.5
5000m 6:41.77 34.9
Pair 3
Innerlane Outerlane
156 K. Boutiette USA
Distance: Time: Lap:
200m 19.47 19.4
600m 50.10 30.6
1000m 1:21.33 31.2
1400m 1:53.02 31.6
1800m 2:24.59 31.5
2200m 2:56.32 31.7
2600m 3:28.15 31.8
3000m 4:00.08 31.9
3400m 4:31.68 31.5
3800m 5:02.32 30.6
4200m 5:32.60 30.2
4600m 6:03.06 30.4
5000m 6:34.89 31.8
167 I. Quinn USA
Distance: Time: Lap:
200m 19.31 19.3
600m 49.72 30.4
1000m 1:20.89 31.1
1400m 1:51.57 30.6
1800m 2:22.19 30.6
2200m 2:52.65 30.4
2600m 3:23.18 30.5
3000m 3:53.80 30.6
3400m 4:24.44 30.6
3800m 4:55.15 30.7
4200m 5:25.84 30.6
4600m 5:56.85 31.0
5000m 6:28.06 31.1
Pair 4
Innerlane Outerlane
34 B. Xuan CHN
Distance: Time: Lap:
200m 19.06 19.0
600m 48.53 29.4
1000m 1:18.22 29.6
1400m 1:48.57 30.3
1800m 2:19.03 30.4
2200m 2:49.62 30.5
2600m 3:20.30 30.6
3000m 3:51.42 31.1
3400m 4:23.16 31.7
3800m 4:55.24 32.0
4200m 5:28.15 32.9
4600m 6:01.12 32.9
5000m 6:34.47 33.3
97 H. Silovs LAT
Distance: Time: Lap:
200m 18.58 18.5
600m 47.38 28.8
1000m 1:17.00 29.6
1400m 1:46.77 29.7
1800m 2:16.36 29.5
2200m 2:46.03 29.6
2600m 3:15.95 29.9
3000m 3:45.76 29.8
3400m 4:15.73 29.9
3800m 4:45.72 29.9
4200m 5:15.66 29.9
4600m 5:45.36 29.6
5000m 6:15.60 30.2
Pair 5
Innerlane Outerlane
99 M. Bosker NED
Distance: Time: Lap:
200m 18.82 18.8
600m 48.34 29.5
1000m 1:17.76 29.4
1400m 1:46.89 29.1
1800m 2:15.90 29.0
2200m 2:44.80 28.9
2600m 3:13.84 29.0
3000m 3:42.72 28.8
3400m 4:12.10 29.3
3800m 4:41.89 29.7
4200m 5:12.01 30.1
4600m 5:42.56 30.5
5000m 6:13.68 31.1
64 M. Malfatti ITA
Distance: Time: Lap:
200m 19.64 19.6
600m 49.09 29.4
1000m 1:19.01 29.9
1400m 1:48.19 29.1
1800m 2:17.43 29.2
2200m 2:46.96 29.5
2600m 3:16.80 29.8
3000m 3:47.28 30.4
3400m 4:18.04 30.7
3800m 4:49.01 30.9
4200m 5:20.52 31.5
4600m 5:52.51 31.9
5000m 6:24.85 32.3
Pair 6
Innerlane Outerlane
155 W. Tai TPE
Distance: Time: Lap:
200m 19.60 19.6
600m 49.95 30.3
1000m 1:20.26 30.3
1400m 1:50.95 30.6
1800m 2:21.35 30.3
2200m 2:52.37 31.0
2600m 3:23.52 31.1
3000m 3:55.38 31.8
3400m 4:27.40 32.0
3800m 4:59.71 32.3
4200m 5:32.51 32.8
4600m 6:05.98 33.4
5000m 6:40.09 34.1
40 J. Kopriva CZE
Distance: Time: Lap:
200m 20.34 20.3
600m 50.63 30.2
1000m 1:20.71 30.0
1400m 1:51.13 30.4
1800m 2:22.21 31.0
2200m 2:53.68 31.4
2600m 3:25.46 31.7
3000m 3:56.99 31.5
3400m 4:28.87 31.8
3800m 5:00.94 32.0
4200m 5:33.59 32.6
4600m 6:06.38 32.7
5000m 6:38.58 32.1
Pair 7
Innerlane Outerlane
41 S. Schmidt DEN
Distance: Time: Lap:
200m 19.08 19.0
600m 49.26 30.1
1000m 1:19.58 30.3
1400m 1:50.24 30.6
1800m 2:20.85 30.6
2200m 2:52.05 31.2
2600m 3:23.43 31.3
3000m 3:55.15 31.7
3400m 4:27.44 32.2
3800m 5:00.29 32.8
4200m 5:32.95 32.6
4600m 6:06.16 33.2
5000m 6:39.14 32.9
1 J. Capponi AUS
Distance: Time: Lap:
200m 19.28 19.2
600m 49.40 30.1
1000m 1:19.61 30.2
1400m 1:49.73 30.1
1800m 2:20.18 30.4
2200m 2:51.15 30.9
2600m 3:22.33 31.1
3000m 3:54.29 31.9
3400m 4:27.11 32.8
3800m 5:00.31 33.1
4200m 5:33.55 33.2
4600m 6:07.03 33.4
5000m 6:40.40 33.3
Pair 8
Innerlane Outerlane
135 S. Gryaztsov RUS
Distance: Time: Lap:
200m 18.71 18.7
600m 48.36 29.6
1000m 1:18.09 29.7
1400m 1:47.81 29.7
1800m 2:17.85 30.0
2200m 2:47.83 29.9
2600m 3:17.87 30.0
3000m 3:47.96 30.0
3400m 4:18.23 30.2
3800m 4:48.63 30.3
4200m 5:19.15 30.5
4600m 5:49.67 30.5
5000m 6:20.46 30.7
38 D. Zapata COL
Distance: Time: Lap:
200m 19.45 19.4
600m 49.40 29.9
1000m 1:19.54 30.1
1400m 1:49.76 30.2
1800m 2:20.39 30.6
2200m 2:51.24 30.8
2600m 3:22.77 31.5
3000m 3:54.71 31.9
3400m 4:27.26 32.5
3800m 5:00.57 33.3
4200m 5:34.45 33.8
4600m 6:08.63 34.1
5000m 6:42.23 33.6
Pair 9
Innerlane Outerlane
18 A. Gelinas-Beaulieu CAN
Distance: Time: Lap:
200m 19.80 19.8
600m 50.73 30.9
1000m 1:21.29 30.5
1400m 1:51.67 30.3
1800m 2:21.82 30.1
2200m 2:52.39 30.5
2600m 3:22.86 30.4
3000m 3:53.46 30.5
3400m 4:23.95 30.4
3800m 4:54.43 30.4
4200m 5:24.92 30.4
4600m 5:55.44 30.5
5000m 6:25.72 30.2
42 V. Thorup DEN
Distance: Time: Lap:
200m 21.02 21.0
600m 51.62 30.5
1000m 1:21.53 29.9
1400m 1:51.28 29.7
1800m 2:21.21 29.9
2200m 2:51.10 29.8
2600m 3:20.87 29.7
3000m 3:50.86 29.9
3400m 4:20.88 30.0
3800m 4:51.09 30.2
4200m 5:21.89 30.8
4600m 5:53.16 31.2
5000m 6:24.72 31.5
Pair 10
Innerlane Outerlane
9 V. Mikhailov BLR
Distance: Time: Lap:
200m 19.71 19.7
600m 49.59 29.8
1000m 1:19.19 29.5
1400m 1:49.07 29.8
1800m 2:19.08 30.0
2200m 2:49.08 30.0
2600m 3:18.99 29.9
3000m 3:49.06 30.0
3400m 4:19.06 30.0
3800m 4:49.07 30.0
4200m 5:19.08 30.0
4600m 5:49.25 30.1
5000m 6:19.67 30.4
122 R. Kay NZL
Distance: Time: Lap:
200m 19.96 19.9
600m 49.94 29.9
1000m 1:19.69 29.7
1400m 1:49.59 29.9
1800m 2:19.79 30.1
2200m 2:49.90 30.1
2600m 3:20.54 30.6
3000m 3:52.10 31.5
3400m 4:42.45 50.3
Pair 11
Innerlane Outerlane
133 A. Wielgat POL
Distance: Time: Lap:
200m 19.44 19.4
600m 49.92 30.4
1000m 1:20.25 30.3
1400m 1:50.11 29.8
1800m 2:19.76 29.6
2200m 2:49.70 29.9
2600m 3:19.25 29.5
3000m 3:48.98 29.7
3400m 4:18.81 29.8
3800m 4:48.77 29.9
4200m 5:18.80 30.0
4600m 5:49.54 30.7
5000m 6:20.65 31.1
39 S. Druszkiewicz CZE
Distance: Time: Lap:
200m 19.69 19.6
600m 49.98 30.2
1000m 1:20.14 30.1
1400m 1:49.93 29.7
1800m 2:19.94 30.0
2200m 2:49.62 29.6
2600m 3:19.61 29.9
3000m 3:49.52 29.9
3400m 4:19.72 30.2
3800m 4:49.93 30.2
4200m 5:20.31 30.3
4600m 5:50.82 30.5
5000m 6:21.19 30.3
Pair 12
Innerlane Outerlane
4 L. Heidegger AUT
Distance: Time: Lap:
200m 19.13 19.1
600m 48.50 29.3
1000m 1:18.12 29.6
1400m 1:47.86 29.7
1800m 2:17.55 29.6
2200m 2:47.39 29.8
2600m 3:17.34 29.9
3000m 3:47.27 29.9
3400m 4:17.37 30.0
3800m 4:47.76 30.3
4200m 5:18.46 30.6
4600m 5:49.77 31.3
5000m 6:21.63 31.8
78 S. Williamson JPN
Distance: Time: Lap:
200m 18.74 18.7
600m 48.22 29.4
1000m 1:18.12 29.9
1400m 1:47.87 29.7
1800m 2:17.83 29.9
2200m 2:47.65 29.8
2600m 3:17.88 30.2
3000m 3:47.92 30.0
3400m 4:18.13 30.2
3800m 4:48.50 30.3
4200m 5:18.98 30.4
4600m 5:49.74 30.7
5000m 6:21.92 32.1
Pair 13
Innerlane Outerlane
108 S. Schouten NED
Distance: Time: Lap:
200m 19.03 19.0
600m 49.12 30.0
1000m 1:19.11 29.9
1400m 1:48.83 29.7
1800m 2:18.32 29.4
2200m 2:47.97 29.6
2600m 3:17.77 29.8
3000m 3:47.72 29.9
3400m 4:17.53 29.8
3800m 4:47.33 29.8
4200m 5:17.28 29.9
4600m 5:47.14 29.8
5000m 6:16.76 29.6
163 E. Lehman USA
Distance: Time: Lap:
200m 19.15 19.1
600m 49.14 29.9
1000m 1:18.86 29.7
1400m 1:48.48 29.6
1800m 2:18.46 29.9
2200m 2:48.34 29.8
2600m 3:18.26 29.9
3000m 3:48.49 30.2
3400m 4:23.80 35.3
Pair 14
Innerlane Outerlane
80 D. Babenko KAZ
Distance: Time: Lap:
200m 19.36 19.3
600m 49.00 29.6
1000m 1:19.01 30.0
1400m 1:49.16 30.1
1800m 2:19.26 30.0
2200m 2:49.40 30.1
2600m 3:19.56 30.1
3000m 3:49.79 30.2
3400m 4:19.82 30.0
3800m 4:49.65 29.8
4200m 5:19.49 29.8
4600m 5:49.46 29.9
5000m 6:19.30 29.8
131 J. Szymanski POL
Distance: Time: Lap:
200m 18.85 18.8
600m 47.86 29.0
1000m 1:17.54 29.6
1400m 1:47.39 29.8
1800m 2:17.29 29.8
2200m 2:47.03 29.7
2600m 3:16.90 29.8
3000m 3:47.86 30.9
3400m 4:20.90 33.0
3800m 5:08.13 47.2
Pair 15
Innerlane Outerlane
118 S. Nilsen NOR
Distance: Time: Lap:
200m 18.60 18.6
600m 48.02 29.4
1000m 1:17.95 29.9
1400m 1:47.61 29.6
1800m 2:17.34 29.7
2200m 2:46.71 29.3
2600m 3:16.28 29.5
3000m 3:46.03 29.7
3400m 4:15.21 29.1
3800m 4:44.60 29.3
4200m 5:14.55 29.9
4600m 5:44.17 29.6
5000m 6:13.81 29.6
89 J. Chung KOR
Distance: Time: Lap:
200m 19.78 19.7
600m 49.40 29.6
1000m 1:19.48 30.0
1400m 1:49.32 29.8
1800m 2:19.34 30.0
2200m 2:49.27 29.9
2600m 3:19.58 30.3
3000m 3:50.05 30.4
3400m 4:20.89 30.8
3800m 4:52.59 31.6
4200m 5:25.24 32.6
4600m 5:58.60 33.3
5000m 6:32.26 33.6
Pair 16
Innerlane Outerlane
152 N. van der Poel SWE
Distance: Time: Lap:
200m 19.43 19.4
600m 49.31 29.8
1000m 1:20.88 31.5
150 L. Wenger SUI
Distance: Time: Lap:
200m 18.92 18.9
600m 48.20 29.2
1000m 1:17.53 29.3
1400m 1:46.80 29.2
1800m 2:15.90 29.1
2200m 2:45.02 29.1
2600m 3:14.07 29.0
3000m 3:43.15 29.0
3400m 4:12.55 29.4
3800m 4:42.50 29.9
4200m 5:12.89 30.3
4600m 5:43.82 30.9
5000m 6:15.61 31.7
Pair 17
Innerlane Outerlane
77 R. Tsuchiya JPN
Distance: Time: Lap:
200m 19.17 19.1
600m 48.44 29.2
1000m 1:17.60 29.1
1400m 1:47.06 29.4
1800m 2:16.66 29.5
2200m 2:46.68 30.0
2600m 3:16.26 29.5
3000m 3:45.81 29.5
3400m 4:15.38 29.5
3800m 4:45.14 29.7
4200m 5:14.73 29.5
4600m 5:44.49 29.7
5000m 6:14.78 30.2
5 B. Swings BEL
Distance: Time: Lap:
200m 18.96 18.9
600m 48.10 29.1
1000m 1:17.34 29.2
1400m 1:46.54 29.2
1800m 2:15.90 29.3
2200m 2:45.48 29.5
2600m 3:14.79 29.3
3000m 3:44.03 29.2
3400m 4:13.22 29.1
3800m 4:42.51 29.2
4200m 5:11.95 29.4
4600m 5:41.57 29.6
5000m 6:11.54 29.9
Pair 18
Innerlane Outerlane
69 S. Ichinohe JPN
Distance: Time: Lap:
200m 18.78 18.7
600m 48.17 29.3
1000m 1:17.75 29.5
1400m 1:47.54 29.7
1800m 2:17.30 29.7
2200m 2:47.39 30.0
2600m 3:17.14 29.7
3000m 3:47.03 29.8
3400m 4:16.75 29.7
3800m 4:46.92 30.1
4200m 5:17.54 30.6
4600m 5:49.27 31.7
5000m 6:22.01 32.7
14 B. Donnelly CAN
Distance: Time: Lap:
200m 19.19 19.1
600m 48.76 29.5
1000m 1:18.54 29.7
1400m 1:48.12 29.5
1800m 2:17.89 29.7
2200m 2:47.28 29.3
2600m 3:17.03 29.7
3000m 3:46.80 29.7
3400m 4:16.80 30.0
3800m 4:46.93 30.1
4200m 5:17.05 30.1
4600m 5:47.06 30.0
5000m 6:17.25 30.1